sensor_id;sensor_type;location;lat;lon;timestamp;P1;durP1;ratioP1;P2;durP2;ratioP2
38240;SDS011;24037;49.536;8.500;2023-04-25T00:08:19;6.80;;;3.97;;
38240;SDS011;24037;49.536;8.500;2023-04-25T00:10:45;5.07;;;4.10;;
38240;SDS011;24037;49.536;8.500;2023-04-25T00:13:12;6.85;;;4.40;;
38240;SDS011;24037;49.536;8.500;2023-04-25T00:15:39;8.32;;;5.32;;
38240;SDS011;24037;49.536;8.500;2023-04-25T00:18:07;7.03;;;4.78;;
38240;SDS011;24037;49.536;8.500;2023-04-25T00:20:33;7.88;;;5.00;;
38240;SDS011;24037;49.536;8.500;2023-04-25T00:23:01;7.68;;;5.25;;
38240;SDS011;24037;49.536;8.500;2023-04-25T00:25:27;8.18;;;5.60;;
38240;SDS011;24037;49.536;8.500;2023-04-25T00:27:53;7.45;;;5.22;;
38240;SDS011;24037;49.536;8.500;2023-04-25T00:30:20;8.65;;;5.28;;
38240;SDS011;24037;49.536;8.500;2023-04-25T00:32:46;7.63;;;5.00;;
38240;SDS011;24037;49.536;8.500;2023-04-25T00:35:13;8.57;;;5.50;;
38240;SDS011;24037;49.536;8.500;2023-04-25T00:37:39;6.18;;;4.65;;
38240;SDS011;24037;49.536;8.500;2023-04-25T00:40:06;6.55;;;4.95;;
38240;SDS011;24037;49.536;8.500;2023-04-25T00:42:33;9.30;;;5.38;;
38240;SDS011;24037;49.536;8.500;2023-04-25T00:45:02;7.82;;;5.45;;
38240;SDS011;24037;49.536;8.500;2023-04-25T00:47:31;8.75;;;5.68;;
38240;SDS011;24037;49.536;8.500;2023-04-25T00:49:58;8.60;;;5.22;;
38240;SDS011;24037;49.536;8.500;2023-04-25T00:52:24;6.88;;;5.40;;
38240;SDS011;24037;49.536;8.500;2023-04-25T00:54:51;7.38;;;4.68;;
38240;SDS011;24037;49.536;8.500;2023-04-25T00:57:17;8.13;;;5.22;;
38240;SDS011;24037;49.536;8.500;2023-04-25T00:59:44;8.57;;;5.32;;
38240;SDS011;24037;49.536;8.500;2023-04-25T01:02:12;9.80;;;6.10;;
38240;SDS011;24037;49.536;8.500;2023-04-25T01:04:38;7.97;;;5.22;;
38240;SDS011;24037;49.536;8.500;2023-04-25T01:07:04;8.82;;;6.20;;
38240;SDS011;24037;49.536;8.500;2023-04-25T01:09:31;8.88;;;6.05;;
38240;SDS011;24037;49.536;8.500;2023-04-25T01:12:00;8.15;;;5.80;;
38240;SDS011;24037;49.536;8.500;2023-04-25T01:14:26;11.80;;;6.85;;
38240;SDS011;24037;49.536;8.500;2023-04-25T01:16:53;10.90;;;6.35;;
38240;SDS011;24037;49.536;8.500;2023-04-25T01:19:20;10.15;;;7.68;;
38240;SDS011;24037;49.536;8.500;2023-04-25T01:21:46;11.23;;;8.35;;
38240;SDS011;24037;49.536;8.500;2023-04-25T01:24:13;10.50;;;6.32;;
38240;SDS011;24037;49.536;8.500;2023-04-25T01:26:40;11.90;;;7.30;;
38240;SDS011;24037;49.536;8.500;2023-04-25T01:29:10;10.68;;;7.93;;
38240;SDS011;24037;49.536;8.500;2023-04-25T01:31:37;14.05;;;7.35;;
38240;SDS011;24037;49.536;8.500;2023-04-25T01:34:05;9.95;;;7.30;;
38240;SDS011;24037;49.536;8.500;2023-04-25T01:36:31;12.13;;;7.45;;
38240;SDS011;24037;49.536;8.500;2023-04-25T01:38:57;11.20;;;7.90;;
38240;SDS011;24037;49.536;8.500;2023-04-25T01:41:24;10.18;;;6.47;;
38240;SDS011;24037;49.536;8.500;2023-04-25T01:43:50;8.70;;;5.43;;
38240;SDS011;24037;49.536;8.500;2023-04-25T01:46:17;7.60;;;5.32;;
38240;SDS011;24037;49.536;8.500;2023-04-25T01:48:43;8.90;;;6.20;;
38240;SDS011;24037;49.536;8.500;2023-04-25T01:51:10;10.80;;;6.28;;
38240;SDS011;24037;49.536;8.500;2023-04-25T01:53:37;10.25;;;6.43;;
38240;SDS011;24037;49.536;8.500;2023-04-25T01:56:04;9.32;;;5.50;;
38240;SDS011;24037;49.536;8.500;2023-04-25T01:58:34;9.55;;;5.85;;
38240;SDS011;24037;49.536;8.500;2023-04-25T02:01:03;7.50;;;5.45;;
38240;SDS011;24037;49.536;8.500;2023-04-25T02:03:36;9.50;;;6.90;;
38240;SDS011;24037;49.536;8.500;2023-04-25T02:06:05;9.25;;;6.10;;
38240;SDS011;24037;49.536;8.500;2023-04-25T02:08:34;10.35;;;6.93;;
38240;SDS011;24037;49.536;8.500;2023-04-25T02:11:00;10.35;;;7.00;;
38240;SDS011;24037;49.536;8.500;2023-04-25T02:13:35;10.95;;;5.85;;
38240;SDS011;24037;49.536;8.500;2023-04-25T02:16:36;9.80;;;6.68;;
38240;SDS011;24037;49.536;8.500;2023-04-25T02:19:02;11.73;;;7.07;;
38240;SDS011;24037;49.536;8.500;2023-04-25T02:21:30;10.82;;;7.32;;
38240;SDS011;24037;49.536;8.500;2023-04-25T02:23:56;11.88;;;7.25;;
38240;SDS011;24037;49.536;8.500;2023-04-25T02:26:22;12.20;;;8.43;;
38240;SDS011;24037;49.536;8.500;2023-04-25T02:28:50;12.48;;;8.90;;
38240;SDS011;24037;49.536;8.500;2023-04-25T02:31:18;12.73;;;9.20;;
38240;SDS011;24037;49.536;8.500;2023-04-25T02:33:45;13.75;;;8.73;;
38240;SDS011;24037;49.536;8.500;2023-04-25T02:36:11;11.98;;;8.55;;
38240;SDS011;24037;49.536;8.500;2023-04-25T02:38:38;15.27;;;10.48;;
38240;SDS011;24037;49.536;8.500;2023-04-25T02:41:04;12.77;;;8.77;;
38240;SDS011;24037;49.536;8.500;2023-04-25T02:43:30;18.08;;;11.25;;
38240;SDS011;24037;49.536;8.500;2023-04-25T02:45:56;17.20;;;11.35;;
38240;SDS011;24037;49.536;8.500;2023-04-25T02:48:23;15.52;;;10.90;;
38240;SDS011;24037;49.536;8.500;2023-04-25T02:50:49;16.05;;;9.88;;
38240;SDS011;24037;49.536;8.500;2023-04-25T02:53:15;16.48;;;11.73;;
38240;SDS011;24037;49.536;8.500;2023-04-25T02:55:46;21.13;;;11.70;;
38240;SDS011;24037;49.536;8.500;2023-04-25T02:58:12;13.60;;;10.10;;
38240;SDS011;24037;49.536;8.500;2023-04-25T03:00:44;14.95;;;10.82;;
38240;SDS011;24037;49.536;8.500;2023-04-25T03:03:10;15.45;;;11.85;;
38240;SDS011;24037;49.536;8.500;2023-04-25T03:05:36;15.25;;;11.05;;
38240;SDS011;24037;49.536;8.500;2023-04-25T03:08:03;16.17;;;11.02;;
38240;SDS011;24037;49.536;8.500;2023-04-25T03:10:31;17.42;;;12.13;;
38240;SDS011;24037;49.536;8.500;2023-04-25T03:13:01;17.58;;;12.07;;
38240;SDS011;24037;49.536;8.500;2023-04-25T03:15:27;19.23;;;12.85;;
38240;SDS011;24037;49.536;8.500;2023-04-25T03:17:54;16.75;;;11.38;;
38240;SDS011;24037;49.536;8.500;2023-04-25T03:20:20;15.13;;;10.90;;
38240;SDS011;24037;49.536;8.500;2023-04-25T03:22:46;17.05;;;11.32;;
38240;SDS011;24037;49.536;8.500;2023-04-25T03:25:13;17.92;;;11.48;;
38240;SDS011;24037;49.536;8.500;2023-04-25T03:27:40;16.55;;;10.75;;
38240;SDS011;24037;49.536;8.500;2023-04-25T03:30:07;18.20;;;11.95;;
38240;SDS011;24037;49.536;8.500;2023-04-25T03:32:35;19.15;;;12.45;;
38240;SDS011;24037;49.536;8.500;2023-04-25T03:35:01;18.13;;;13.43;;
38240;SDS011;24037;49.536;8.500;2023-04-25T03:37:28;20.70;;;13.27;;
38240;SDS011;24037;49.536;8.500;2023-04-25T03:39:54;17.20;;;12.60;;
38240;SDS011;24037;49.536;8.500;2023-04-25T03:42:23;20.90;;;12.13;;
38240;SDS011;24037;49.536;8.500;2023-04-25T03:44:49;15.77;;;10.57;;
38240;SDS011;24037;49.536;8.500;2023-04-25T03:47:17;16.05;;;11.35;;
38240;SDS011;24037;49.536;8.500;2023-04-25T03:49:43;19.05;;;10.98;;
38240;SDS011;24037;49.536;8.500;2023-04-25T03:52:10;16.30;;;11.55;;
38240;SDS011;24037;49.536;8.500;2023-04-25T03:54:39;15.38;;;10.65;;
38240;SDS011;24037;49.536;8.500;2023-04-25T03:57:17;18.40;;;10.38;;
38240;SDS011;24037;49.536;8.500;2023-04-25T03:59:44;15.75;;;10.75;;
38240;SDS011;24037;49.536;8.500;2023-04-25T04:02:13;14.57;;;10.07;;
38240;SDS011;24037;49.536;8.500;2023-04-25T04:04:40;18.27;;;9.77;;
38240;SDS011;24037;49.536;8.500;2023-04-25T04:07:06;13.23;;;8.93;;
38240;SDS011;24037;49.536;8.500;2023-04-25T04:09:39;16.00;;;10.45;;
38240;SDS011;24037;49.536;8.500;2023-04-25T04:12:09;15.50;;;11.43;;
38240;SDS011;24037;49.536;8.500;2023-04-25T04:14:38;13.20;;;8.88;;
38240;SDS011;24037;49.536;8.500;2023-04-25T04:17:04;15.15;;;10.27;;
38240;SDS011;24037;49.536;8.500;2023-04-25T04:19:31;17.27;;;10.35;;
38240;SDS011;24037;49.536;8.500;2023-04-25T04:22:08;16.15;;;11.52;;
38240;SDS011;24037;49.536;8.500;2023-04-25T04:24:35;17.40;;;10.75;;
38240;SDS011;24037;49.536;8.500;2023-04-25T04:27:05;13.40;;;10.05;;
38240;SDS011;24037;49.536;8.500;2023-04-25T04:29:36;12.95;;;9.85;;
38240;SDS011;24037;49.536;8.500;2023-04-25T04:32:34;12.73;;;9.52;;
38240;SDS011;24037;49.536;8.500;2023-04-25T04:35:04;15.20;;;10.98;;
38240;SDS011;24037;49.536;8.500;2023-04-25T04:37:32;13.90;;;10.18;;
38240;SDS011;24037;49.536;8.500;2023-04-25T04:40:00;14.23;;;10.02;;
38240;SDS011;24037;49.536;8.500;2023-04-25T04:42:51;16.02;;;10.63;;
38240;SDS011;24037;49.536;8.500;2023-04-25T04:45:27;18.08;;;10.93;;
38240;SDS011;24037;49.536;8.500;2023-04-25T04:48:14;15.35;;;10.35;;
38240;SDS011;24037;49.536;8.500;2023-04-25T04:50:54;18.15;;;12.57;;
38240;SDS011;24037;49.536;8.500;2023-04-25T04:53:41;19.15;;;12.80;;
38240;SDS011;24037;49.536;8.500;2023-04-25T04:56:20;17.17;;;12.15;;
38240;SDS011;24037;49.536;8.500;2023-04-25T04:58:49;20.13;;;12.90;;
38240;SDS011;24037;49.536;8.500;2023-04-25T05:01:29;18.30;;;12.43;;
38240;SDS011;24037;49.536;8.500;2023-04-25T05:04:16;15.60;;;12.18;;
38240;SDS011;24037;49.536;8.500;2023-04-25T05:07:01;20.50;;;13.05;;
38240;SDS011;24037;49.536;8.500;2023-04-25T05:09:46;22.90;;;15.20;;
38240;SDS011;24037;49.536;8.500;2023-04-25T05:12:33;21.00;;;13.13;;
38240;SDS011;24037;49.536;8.500;2023-04-25T05:15:20;19.73;;;12.90;;
38240;SDS011;24037;49.536;8.500;2023-04-25T05:18:04;21.95;;;13.65;;
38240;SDS011;24037;49.536;8.500;2023-04-25T05:20:40;18.88;;;12.32;;
38240;SDS011;24037;49.536;8.500;2023-04-25T05:23:25;20.75;;;13.43;;
38240;SDS011;24037;49.536;8.500;2023-04-25T05:26:03;20.98;;;13.35;;
38240;SDS011;24037;49.536;8.500;2023-04-25T05:28:52;16.98;;;11.82;;
38240;SDS011;24037;49.536;8.500;2023-04-25T05:31:36;17.17;;;11.40;;
38240;SDS011;24037;49.536;8.500;2023-04-25T05:34:12;18.63;;;13.43;;
38240;SDS011;24037;49.536;8.500;2023-04-25T05:36:45;19.67;;;12.05;;
38240;SDS011;24037;49.536;8.500;2023-04-25T05:39:17;21.25;;;11.98;;
38240;SDS011;24037;49.536;8.500;2023-04-25T05:42:09;20.85;;;12.15;;
38240;SDS011;24037;49.536;8.500;2023-04-25T05:44:57;15.48;;;10.93;;
38240;SDS011;24037;49.536;8.500;2023-04-25T05:47:48;17.15;;;10.60;;
38240;SDS011;24037;49.536;8.500;2023-04-25T05:50:23;16.02;;;10.95;;
38240;SDS011;24037;49.536;8.500;2023-04-25T05:53:01;19.38;;;12.23;;
38240;SDS011;24037;49.536;8.500;2023-04-25T05:55:37;13.93;;;9.40;;
38240;SDS011;24037;49.536;8.500;2023-04-25T05:58:18;14.32;;;9.48;;
38240;SDS011;24037;49.536;8.500;2023-04-25T06:00:45;15.07;;;10.55;;
38240;SDS011;24037;49.536;8.500;2023-04-25T06:03:12;15.57;;;9.95;;
38240;SDS011;24037;49.536;8.500;2023-04-25T06:05:43;16.58;;;9.32;;
38240;SDS011;24037;49.536;8.500;2023-04-25T06:08:10;13.40;;;9.35;;
38240;SDS011;24037;49.536;8.500;2023-04-25T06:10:37;14.68;;;10.00;;
38240;SDS011;24037;49.536;8.500;2023-04-25T06:13:04;13.10;;;9.57;;
38240;SDS011;24037;49.536;8.500;2023-04-25T06:15:33;12.07;;;7.90;;
38240;SDS011;24037;49.536;8.500;2023-04-25T06:18:01;13.50;;;8.00;;
38240;SDS011;24037;49.536;8.500;2023-04-25T06:20:27;12.65;;;8.20;;
38240;SDS011;24037;49.536;8.500;2023-04-25T06:22:56;9.80;;;7.28;;
38240;SDS011;24037;49.536;8.500;2023-04-25T06:25:43;11.60;;;7.72;;
38240;SDS011;24037;49.536;8.500;2023-04-25T06:28:09;10.90;;;7.18;;
38240;SDS011;24037;49.536;8.500;2023-04-25T06:30:36;12.65;;;7.40;;
38240;SDS011;24037;49.536;8.500;2023-04-25T06:33:07;10.80;;;7.55;;
38240;SDS011;24037;49.536;8.500;2023-04-25T06:35:34;12.00;;;7.47;;
38240;SDS011;24037;49.536;8.500;2023-04-25T06:38:01;10.55;;;7.35;;
38240;SDS011;24037;49.536;8.500;2023-04-25T06:40:28;13.05;;;8.20;;
38240;SDS011;24037;49.536;8.500;2023-04-25T06:42:55;11.70;;;7.05;;
38240;SDS011;24037;49.536;8.500;2023-04-25T06:45:53;12.38;;;7.57;;
38240;SDS011;24037;49.536;8.500;2023-04-25T06:48:21;13.35;;;7.70;;
38240;SDS011;24037;49.536;8.500;2023-04-25T06:50:48;11.50;;;7.05;;
38240;SDS011;24037;49.536;8.500;2023-04-25T06:53:14;16.25;;;9.07;;
38240;SDS011;24037;49.536;8.500;2023-04-25T06:55:43;10.60;;;6.68;;
38240;SDS011;24037;49.536;8.500;2023-04-25T06:58:18;11.25;;;6.28;;
38240;SDS011;24037;49.536;8.500;2023-04-25T07:00:56;12.77;;;6.82;;
38240;SDS011;24037;49.536;8.500;2023-04-25T07:03:25;15.85;;;8.00;;
38240;SDS011;24037;49.536;8.500;2023-04-25T07:05:55;11.60;;;6.55;;
38240;SDS011;24037;49.536;8.500;2023-04-25T07:08:22;16.63;;;7.75;;
38240;SDS011;24037;49.536;8.500;2023-04-25T07:10:48;17.52;;;6.63;;
38240;SDS011;24037;49.536;8.500;2023-04-25T07:13:15;18.77;;;5.80;;
38240;SDS011;24037;49.536;8.500;2023-04-25T07:15:41;11.55;;;6.68;;
38240;SDS011;24037;49.536;8.500;2023-04-25T07:18:09;12.68;;;6.28;;
38240;SDS011;24037;49.536;8.500;2023-04-25T07:20:36;13.20;;;6.25;;
38240;SDS011;24037;49.536;8.500;2023-04-25T07:23:02;16.77;;;7.57;;
38240;SDS011;24037;49.536;8.500;2023-04-25T07:25:29;12.70;;;7.22;;
38240;SDS011;24037;49.536;8.500;2023-04-25T07:27:56;16.88;;;6.57;;
38240;SDS011;24037;49.536;8.500;2023-04-25T07:30:22;15.25;;;7.65;;
38240;SDS011;24037;49.536;8.500;2023-04-25T07:32:49;13.02;;;6.95;;
38240;SDS011;24037;49.536;8.500;2023-04-25T07:35:16;22.58;;;7.65;;
38240;SDS011;24037;49.536;8.500;2023-04-25T07:37:43;20.20;;;7.95;;
38240;SDS011;24037;49.536;8.500;2023-04-25T07:40:12;14.85;;;7.70;;
38240;SDS011;24037;49.536;8.500;2023-04-25T07:42:45;10.73;;;5.95;;
38240;SDS011;24037;49.536;8.500;2023-04-25T07:45:15;11.88;;;6.30;;
38240;SDS011;24037;49.536;8.500;2023-04-25T07:47:42;13.32;;;5.55;;
38240;SDS011;24037;49.536;8.500;2023-04-25T07:50:08;15.93;;;6.30;;
38240;SDS011;24037;49.536;8.500;2023-04-25T07:52:36;11.55;;;5.32;;
38240;SDS011;24037;49.536;8.500;2023-04-25T07:55:18;13.02;;;5.57;;
38240;SDS011;24037;49.536;8.500;2023-04-25T07:57:56;11.07;;;4.80;;
38240;SDS011;24037;49.536;8.500;2023-04-25T08:00:22;13.07;;;5.45;;
38240;SDS011;24037;49.536;8.500;2023-04-25T08:02:55;10.57;;;4.13;;
38240;SDS011;24037;49.536;8.500;2023-04-25T08:05:21;12.60;;;5.43;;
38240;SDS011;24037;49.536;8.500;2023-04-25T08:07:53;12.77;;;4.70;;
38240;SDS011;24037;49.536;8.500;2023-04-25T08:10:20;10.50;;;5.07;;
38240;SDS011;24037;49.536;8.500;2023-04-25T08:12:48;11.18;;;4.97;;
38240;SDS011;24037;49.536;8.500;2023-04-25T08:15:14;10.63;;;5.03;;
38240;SDS011;24037;49.536;8.500;2023-04-25T08:17:41;10.02;;;4.75;;
38240;SDS011;24037;49.536;8.500;2023-04-25T08:20:09;9.13;;;5.05;;
38240;SDS011;24037;49.536;8.500;2023-04-25T08:22:36;9.98;;;4.45;;
38240;SDS011;24037;49.536;8.500;2023-04-25T08:25:22;8.80;;;4.35;;
38240;SDS011;24037;49.536;8.500;2023-04-25T08:27:49;11.68;;;4.72;;
38240;SDS011;24037;49.536;8.500;2023-04-25T08:30:18;10.50;;;5.00;;
38240;SDS011;24037;49.536;8.500;2023-04-25T08:32:45;7.45;;;3.58;;
38240;SDS011;24037;49.536;8.500;2023-04-25T08:35:29;11.05;;;4.78;;
38240;SDS011;24037;49.536;8.500;2023-04-25T08:37:56;10.38;;;5.72;;
38240;SDS011;24037;49.536;8.500;2023-04-25T08:40:23;12.00;;;4.90;;
38240;SDS011;24037;49.536;8.500;2023-04-25T08:43:00;8.38;;;4.43;;
38240;SDS011;24037;49.536;8.500;2023-04-25T08:45:29;6.50;;;3.75;;
38240;SDS011;24037;49.536;8.500;2023-04-25T08:47:59;12.13;;;4.95;;
38240;SDS011;24037;49.536;8.500;2023-04-25T08:50:26;8.68;;;3.88;;
38240;SDS011;24037;49.536;8.500;2023-04-25T08:52:53;12.00;;;4.40;;
38240;SDS011;24037;49.536;8.500;2023-04-25T08:55:21;9.18;;;4.47;;
38240;SDS011;24037;49.536;8.500;2023-04-25T08:57:50;14.48;;;5.18;;
38240;SDS011;24037;49.536;8.500;2023-04-25T09:00:19;9.43;;;4.53;;
38240;SDS011;24037;49.536;8.500;2023-04-25T09:02:46;9.35;;;4.78;;
38240;SDS011;24037;49.536;8.500;2023-04-25T09:05:13;11.05;;;4.80;;
38240;SDS011;24037;49.536;8.500;2023-04-25T09:07:40;8.60;;;5.15;;
38240;SDS011;24037;49.536;8.500;2023-04-25T09:10:07;11.05;;;4.22;;
38240;SDS011;24037;49.536;8.500;2023-04-25T09:12:36;7.30;;;4.07;;
38240;SDS011;24037;49.536;8.500;2023-04-25T09:17:57;10.15;;;4.25;;
38240;SDS011;24037;49.536;8.500;2023-04-25T09:20:32;8.65;;;4.18;;
38240;SDS011;24037;49.536;8.500;2023-04-25T09:23:06;9.30;;;4.57;;
38240;SDS011;24037;49.536;8.500;2023-04-25T09:25:35;10.65;;;4.85;;
38240;SDS011;24037;49.536;8.500;2023-04-25T09:30:35;15.57;;;5.55;;
38240;SDS011;24037;49.536;8.500;2023-04-25T09:33:26;10.40;;;4.40;;
38240;SDS011;24037;49.536;8.500;2023-04-25T09:36:04;11.07;;;4.80;;
38240;SDS011;24037;49.536;8.500;2023-04-25T09:38:59;8.70;;;4.10;;
38240;SDS011;24037;49.536;8.500;2023-04-25T09:41:32;12.60;;;4.57;;
38240;SDS011;24037;49.536;8.500;2023-04-25T09:44:03;8.40;;;4.45;;
38240;SDS011;24037;49.536;8.500;2023-04-25T09:46:35;10.18;;;3.90;;
38240;SDS011;24037;49.536;8.500;2023-04-25T09:49:06;11.10;;;4.47;;
38240;SDS011;24037;49.536;8.500;2023-04-25T09:51:41;12.35;;;4.22;;
38240;SDS011;24037;49.536;8.500;2023-04-25T09:54:09;10.10;;;4.65;;
38240;SDS011;24037;49.536;8.500;2023-04-25T09:56:47;8.52;;;4.28;;
38240;SDS011;24037;49.536;8.500;2023-04-25T09:59:17;8.68;;;5.32;;
38240;SDS011;24037;49.536;8.500;2023-04-25T10:01:46;10.75;;;4.07;;
38240;SDS011;24037;49.536;8.500;2023-04-25T10:04:24;9.23;;;5.00;;
38240;SDS011;24037;49.536;8.500;2023-04-25T10:07:06;5.68;;;3.70;;
38240;SDS011;24037;49.536;8.500;2023-04-25T10:09:33;10.38;;;4.47;;
38240;SDS011;24037;49.536;8.500;2023-04-25T10:12:02;10.70;;;5.60;;
38240;SDS011;24037;49.536;8.500;2023-04-25T10:14:32;10.05;;;4.45;;
38240;SDS011;24037;49.536;8.500;2023-04-25T10:16:59;9.68;;;4.38;;
38240;SDS011;24037;49.536;8.500;2023-04-25T10:19:27;8.65;;;4.20;;
38240;SDS011;24037;49.536;8.500;2023-04-25T10:22:02;9.40;;;4.38;;
38240;SDS011;24037;49.536;8.500;2023-04-25T10:24:32;10.02;;;4.80;;
38240;SDS011;24037;49.536;8.500;2023-04-25T10:27:03;8.38;;;3.95;;
38240;SDS011;24037;49.536;8.500;2023-04-25T10:29:30;7.90;;;4.05;;
38240;SDS011;24037;49.536;8.500;2023-04-25T10:31:57;5.90;;;3.78;;
38240;SDS011;24037;49.536;8.500;2023-04-25T10:34:24;8.45;;;3.95;;
38240;SDS011;24037;49.536;8.500;2023-04-25T10:37:04;5.82;;;3.42;;
38240;SDS011;24037;49.536;8.500;2023-04-25T10:39:30;7.35;;;3.72;;
38240;SDS011;24037;49.536;8.500;2023-04-25T10:41:58;10.27;;;4.10;;
38240;SDS011;24037;49.536;8.500;2023-04-25T10:44:31;7.13;;;3.42;;
38240;SDS011;24037;49.536;8.500;2023-04-25T10:46:58;8.83;;;3.57;;
38240;SDS011;24037;49.536;8.500;2023-04-25T10:49:30;8.32;;;3.17;;
38240;SDS011;24037;49.536;8.500;2023-04-25T10:54:48;4.88;;;3.35;;
38240;SDS011;24037;49.536;8.500;2023-04-25T11:00:14;9.40;;;3.22;;
38240;SDS011;24037;49.536;8.500;2023-04-25T11:02:52;4.47;;;2.45;;
38240;SDS011;24037;49.536;8.500;2023-04-25T11:05:26;5.28;;;2.70;;
38240;SDS011;24037;49.536;8.500;2023-04-25T11:07:58;5.72;;;2.53;;
38240;SDS011;24037;49.536;8.500;2023-04-25T11:10:34;4.50;;;2.30;;
38240;SDS011;24037;49.536;8.500;2023-04-25T11:13:03;4.32;;;2.15;;
38240;SDS011;24037;49.536;8.500;2023-04-25T11:15:29;5.38;;;2.10;;
38240;SDS011;24037;49.536;8.500;2023-04-25T11:17:56;5.72;;;2.50;;
38240;SDS011;24037;49.536;8.500;2023-04-25T11:20:22;6.43;;;2.58;;
38240;SDS011;24037;49.536;8.500;2023-04-25T11:22:51;10.40;;;3.00;;
38240;SDS011;24037;49.536;8.500;2023-04-25T11:25:17;5.20;;;2.38;;
38240;SDS011;24037;49.536;8.500;2023-04-25T11:27:50;7.40;;;2.47;;
38240;SDS011;24037;49.536;8.500;2023-04-25T11:30:24;6.60;;;2.80;;
38240;SDS011;24037;49.536;8.500;2023-04-25T11:32:51;9.23;;;3.25;;
38240;SDS011;24037;49.536;8.500;2023-04-25T11:35:18;4.82;;;2.85;;
38240;SDS011;24037;49.536;8.500;2023-04-25T11:37:46;4.50;;;2.30;;
38240;SDS011;24037;49.536;8.500;2023-04-25T11:40:12;5.65;;;3.10;;
38240;SDS011;24037;49.536;8.500;2023-04-25T11:42:39;5.50;;;2.55;;
38240;SDS011;24037;49.536;8.500;2023-04-25T11:45:09;6.85;;;2.65;;
38240;SDS011;24037;49.536;8.500;2023-04-25T11:47:36;3.58;;;2.75;;
38240;SDS011;24037;49.536;8.500;2023-04-25T11:50:03;5.70;;;2.70;;
38240;SDS011;24037;49.536;8.500;2023-04-25T11:55:14;4.97;;;2.90;;
38240;SDS011;24037;49.536;8.500;2023-04-25T11:57:42;5.40;;;2.95;;
38240;SDS011;24037;49.536;8.500;2023-04-25T12:02:44;6.38;;;2.70;;
38240;SDS011;24037;49.536;8.500;2023-04-25T12:05:17;7.65;;;3.47;;
38240;SDS011;24037;49.536;8.500;2023-04-25T12:07:43;9.52;;;3.33;;
38240;SDS011;24037;49.536;8.500;2023-04-25T12:10:10;7.43;;;4.97;;
38240;SDS011;24037;49.536;8.500;2023-04-25T12:12:41;4.63;;;3.20;;
38240;SDS011;24037;49.536;8.500;2023-04-25T12:15:18;8.48;;;3.25;;
38240;SDS011;24037;49.536;8.500;2023-04-25T12:17:52;8.00;;;4.05;;
38240;SDS011;24037;49.536;8.500;2023-04-25T12:20:20;5.75;;;3.50;;
38240;SDS011;24037;49.536;8.500;2023-04-25T12:22:50;5.85;;;3.70;;
38240;SDS011;24037;49.536;8.500;2023-04-25T12:33:31;7.80;;;4.13;;
38240;SDS011;24037;49.536;8.500;2023-04-25T12:36:02;5.63;;;3.88;;
38240;SDS011;24037;49.536;8.500;2023-04-25T12:38:40;5.65;;;3.10;;
38240;SDS011;24037;49.536;8.500;2023-04-25T12:41:07;6.47;;;3.42;;
38240;SDS011;24037;49.536;8.500;2023-04-25T12:43:34;4.80;;;3.25;;
38240;SDS011;24037;49.536;8.500;2023-04-25T12:46:01;8.98;;;4.13;;
38240;SDS011;24037;49.536;8.500;2023-04-25T12:48:27;6.60;;;3.75;;
38240;SDS011;24037;49.536;8.500;2023-04-25T12:50:53;9.43;;;4.40;;
38240;SDS011;24037;49.536;8.500;2023-04-25T12:53:20;9.63;;;3.85;;
38240;SDS011;24037;49.536;8.500;2023-04-25T12:55:47;7.43;;;4.10;;
38240;SDS011;24037;49.536;8.500;2023-04-25T12:58:14;7.28;;;3.25;;
38240;SDS011;24037;49.536;8.500;2023-04-25T13:00:41;5.68;;;3.72;;
38240;SDS011;24037;49.536;8.500;2023-04-25T13:03:08;6.65;;;3.35;;
38240;SDS011;24037;49.536;8.500;2023-04-25T13:05:36;9.73;;;3.95;;
38240;SDS011;24037;49.536;8.500;2023-04-25T13:08:03;5.47;;;3.53;;
38240;SDS011;24037;49.536;8.500;2023-04-25T13:10:29;6.82;;;4.18;;
38240;SDS011;24037;49.536;8.500;2023-04-25T13:12:56;6.85;;;3.97;;
38240;SDS011;24037;49.536;8.500;2023-04-25T13:15:22;10.15;;;4.57;;
38240;SDS011;24037;49.536;8.500;2023-04-25T13:17:48;6.53;;;3.35;;
38240;SDS011;24037;49.536;8.500;2023-04-25T13:20:15;7.15;;;3.78;;
38240;SDS011;24037;49.536;8.500;2023-04-25T13:22:41;5.88;;;3.30;;
38240;SDS011;24037;49.536;8.500;2023-04-25T13:25:08;9.05;;;3.40;;
38240;SDS011;24037;49.536;8.500;2023-04-25T13:27:35;6.72;;;3.45;;
38240;SDS011;24037;49.536;8.500;2023-04-25T13:30:05;9.13;;;4.38;;
38240;SDS011;24037;49.536;8.500;2023-04-25T13:32:35;7.10;;;4.13;;
38240;SDS011;24037;49.536;8.500;2023-04-25T13:35:02;7.13;;;3.78;;
38240;SDS011;24037;49.536;8.500;2023-04-25T13:37:29;9.10;;;3.92;;
38240;SDS011;24037;49.536;8.500;2023-04-25T13:39:56;12.00;;;4.15;;
38240;SDS011;24037;49.536;8.500;2023-04-25T13:42:23;5.95;;;3.42;;
38240;SDS011;24037;49.536;8.500;2023-04-25T13:44:49;12.27;;;4.25;;
38240;SDS011;24037;49.536;8.500;2023-04-25T13:47:15;8.93;;;4.15;;
38240;SDS011;24037;49.536;8.500;2023-04-25T13:49:41;12.00;;;3.90;;
38240;SDS011;24037;49.536;8.500;2023-04-25T13:52:07;10.65;;;4.38;;
38240;SDS011;24037;49.536;8.500;2023-04-25T13:54:34;10.15;;;3.15;;
38240;SDS011;24037;49.536;8.500;2023-04-25T13:57:00;5.53;;;3.35;;
38240;SDS011;24037;49.536;8.500;2023-04-25T13:59:27;5.85;;;3.40;;
38240;SDS011;24037;49.536;8.500;2023-04-25T14:01:53;7.70;;;3.78;;
38240;SDS011;24037;49.536;8.500;2023-04-25T14:04:19;7.68;;;3.83;;
38240;SDS011;24037;49.536;8.500;2023-04-25T14:06:45;10.30;;;3.50;;
38240;SDS011;24037;49.536;8.500;2023-04-25T14:09:12;8.23;;;2.90;;
38240;SDS011;24037;49.536;8.500;2023-04-25T14:11:38;8.05;;;2.95;;
38240;SDS011;24037;49.536;8.500;2023-04-25T14:14:04;6.90;;;3.40;;
38240;SDS011;24037;49.536;8.500;2023-04-25T14:16:31;10.18;;;3.67;;
38240;SDS011;24037;49.536;8.500;2023-04-25T14:18:58;6.15;;;2.85;;
38240;SDS011;24037;49.536;8.500;2023-04-25T14:21:24;9.20;;;3.28;;
38240;SDS011;24037;49.536;8.500;2023-04-25T14:23:50;6.57;;;2.97;;
38240;SDS011;24037;49.536;8.500;2023-04-25T14:26:17;6.07;;;2.75;;
38240;SDS011;24037;49.536;8.500;2023-04-25T14:28:43;6.78;;;3.25;;
38240;SDS011;24037;49.536;8.500;2023-04-25T14:31:09;9.20;;;3.20;;
38240;SDS011;24037;49.536;8.500;2023-04-25T14:33:35;8.02;;;2.90;;
38240;SDS011;24037;49.536;8.500;2023-04-25T14:36:05;8.55;;;3.05;;
38240;SDS011;24037;49.536;8.500;2023-04-25T14:38:32;6.05;;;3.00;;
38240;SDS011;24037;49.536;8.500;2023-04-25T14:40:58;8.82;;;3.55;;
38240;SDS011;24037;49.536;8.500;2023-04-25T14:43:24;8.70;;;3.00;;
38240;SDS011;24037;49.536;8.500;2023-04-25T14:45:50;5.85;;;2.50;;
38240;SDS011;24037;49.536;8.500;2023-04-25T14:48:17;5.80;;;2.72;;
38240;SDS011;24037;49.536;8.500;2023-04-25T14:50:48;9.20;;;3.35;;
38240;SDS011;24037;49.536;8.500;2023-04-25T14:53:14;6.90;;;2.80;;
38240;SDS011;24037;49.536;8.500;2023-04-25T14:55:41;7.15;;;2.72;;
38240;SDS011;24037;49.536;8.500;2023-04-25T14:58:07;10.30;;;3.08;;
38240;SDS011;24037;49.536;8.500;2023-04-25T15:00:33;6.22;;;2.63;;
38240;SDS011;24037;49.536;8.500;2023-04-25T15:02:59;9.40;;;3.17;;
38240;SDS011;24037;49.536;8.500;2023-04-25T15:05:26;8.27;;;3.08;;
38240;SDS011;24037;49.536;8.500;2023-04-25T15:07:54;15.38;;;4.25;;
38240;SDS011;24037;49.536;8.500;2023-04-25T15:10:21;9.13;;;2.88;;
38240;SDS011;24037;49.536;8.500;2023-04-25T15:12:48;3.65;;;2.30;;
38240;SDS011;24037;49.536;8.500;2023-04-25T15:15:14;6.20;;;2.70;;
38240;SDS011;24037;49.536;8.500;2023-04-25T15:17:41;8.10;;;2.55;;
38240;SDS011;24037;49.536;8.500;2023-04-25T15:20:08;6.65;;;2.63;;
38240;SDS011;24037;49.536;8.500;2023-04-25T15:22:36;5.22;;;2.72;;
38240;SDS011;24037;49.536;8.500;2023-04-25T15:25:02;8.95;;;2.63;;